Time;durP1;ratioP1;P1;durP2;ratioP2;P2;SDS_P1;SDS_P2;PMS_P1;PMS_P2;Temp;Humidity;BMP_temperature;BMP_pressure;BME280_temperature;BME280_humidity;BME280_pressure;Samples;Min_cycle;Max_cycle;Signal;HPM_P1;HPM_P2
2023/06/13 00:01:50;;;;;;;5.72;2.92;;;9.50;99.90;;;;;;5121372;27;20063;-70
2023/06/13 00:04:23;;;;;;;4.57;2.60;;;9.50;99.90;;;;;;5121357;27;20042;-70
2023/06/13 00:06:57;;;;;;;10.85;2.85;;;9.40;99.90;;;;;;5140106;27;20042;-71
2023/06/13 00:09:24;;;;;;;3.45;2.42;;;9.40;99.90;;;;;;5139829;27;20035;-70
2023/06/13 00:11:50;;;;;;;7.28;2.85;;;9.40;99.90;;;;;;5121372;27;20063;-70
2023/06/13 00:14:17;;;;;;;3.90;2.53;;;9.40;99.90;;;;;;5121466;27;20121;-70
2023/06/13 00:16:52;;;;;;;6.65;2.83;;;9.40;99.90;;;;;;5121638;27;20427;-70
2023/06/13 00:19:19;;;;;;;5.90;3.13;;;9.30;99.90;;;;;;5139977;27;20058;-70
2023/06/13 00:21:47;;;;;;;5.93;3.00;;;9.30;99.90;;;;;;5122259;27;20192;-70
2023/06/13 00:24:13;;;;;;;6.10;2.67;;;9.30;99.90;;;;;;5139557;27;20038;-70
2023/06/13 00:26:39;;;;;;;5.45;3.05;;;9.20;99.90;;;;;;5139813;27;20265;-70
2023/06/13 00:29:04;;;;;;;6.72;2.78;;;9.20;99.90;;;;;;5139474;27;20377;-70
2023/06/13 00:31:30;;;;;;;5.00;3.15;;;9.10;99.90;;;;;;5139358;27;20027;-70
2023/06/13 00:33:57;;;;;;;7.90;2.40;;;9.10;99.90;;;;;;5139734;27;20037;-70
2023/06/13 00:36:25;;;;;;;8.35;3.33;;;9.10;99.90;;;;;;5121509;27;20035;-70
2023/06/13 00:38:51;;;;;;;3.75;2.60;;;9.10;99.90;;;;;;5139729;27;20032;-70
2023/06/13 00:41:17;;;;;;;4.22;3.20;;;9.10;99.90;;;;;;5139429;27;20043;-70
2023/06/13 00:43:43;;;;;;;8.13;2.88;;;9.10;99.90;;;;;;5121088;27;20033;-70
2023/06/13 00:46:09;;;;;;;7.05;2.80;;;9.10;99.90;;;;;;5120745;27;20121;-70
2023/06/13 00:48:37;;;;;;;7.28;3.30;;;9.10;99.90;;;;;;5121071;27;20035;-70
2023/06/13 00:51:03;;;;;;;5.32;2.97;;;9.00;99.90;;;;;;5139389;27;20027;-70
2023/06/13 00:53:31;;;;;;;8.10;2.78;;;9.00;99.90;;;;;;5139511;27;20031;-70
2023/06/13 00:55:58;;;;;;;6.40;3.40;;;9.00;99.90;;;;;;5139467;27;20476;-70
2023/06/13 00:58:24;;;;;;;3.45;2.83;;;8.90;99.90;;;;;;5120935;27;20039;-70
2023/06/13 01:00:52;;;;;;;7.25;3.42;;;8.90;99.90;;;;;;5120362;27;20391;-70
2023/06/13 01:03:19;;;;;;;5.00;2.70;;;8.90;99.90;;;;;;5138893;27;20061;-70
2023/06/13 01:05:46;;;;;;;3.78;2.90;;;8.80;99.90;;;;;;5120242;27;20118;-70
2023/06/13 01:08:16;;;;;;;4.50;3.00;;;8.80;99.90;;;;;;5119056;27;20027;-70
2023/06/13 01:10:43;;;;;;;3.15;2.70;;;8.80;99.90;;;;;;5138676;27;20031;-70
2023/06/13 01:13:16;;;;;;;3.40;3.08;;;8.80;99.90;;;;;;5139757;27;20499;-70
2023/06/13 01:15:54;;;;;;;4.97;2.67;;;8.80;99.90;;;;;;5123322;27;20080;-70
2023/06/13 01:18:24;;;;;;;6.32;3.00;;;8.70;99.90;;;;;;5140989;27;20035;-70
2023/06/13 01:20:56;;;;;;;6.90;3.13;;;8.70;99.90;;;;;;5140956;27;20050;-70
2023/06/13 01:23:49;;;;;;;4.63;2.92;;;8.70;99.90;;;;;;5140497;27;20028;-70
2023/06/13 01:26:48;;;;;;;8.52;3.10;;;8.60;99.90;;;;;;5140104;27;20422;-70
2023/06/13 01:29:15;;;;;;;;;;;8.60;99.90;;;;;;5140797;27;20110;-70
2023/06/13 01:31:42;;;;;;;3.33;2.67;;;8.60;99.90;;;;;;5121289;27;20367;-70
2023/06/13 01:34:09;;;;;;;6.35;2.90;;;8.50;99.90;;;;;;5139767;27;20027;-70
2023/06/13 01:36:36;;;;;;;5.05;2.83;;;8.50;99.90;;;;;;5140111;27;20030;-70
2023/06/13 01:39:02;;;;;;;4.75;3.30;;;8.50;99.90;;;;;;5139958;27;20099;-70
2023/06/13 01:41:27;;;;;;;6.82;3.30;;;8.40;99.90;;;;;;5122005;27;20039;-70
2023/06/13 01:43:53;;;;;;;5.55;3.13;;;8.40;99.90;;;;;;5121884;27;20035;-70
2023/06/13 01:46:27;;;;;;;7.10;2.80;;;8.40;99.90;;;;;;5140308;27;20032;-70
2023/06/13 01:49:08;;;;;;;5.15;3.53;;;8.30;99.90;;;;;;5139687;27;20084;-70
2023/06/13 01:51:48;;;;;;;7.03;3.30;;;8.30;99.90;;;;;;5121550;27;20035;-70
2023/06/13 01:54:20;;;;;;;3.42;3.05;;;8.30;99.90;;;;;;5120513;27;20027;-70
2023/06/13 01:56:49;;;;;;;5.07;2.85;;;8.30;99.90;;;;;;5138639;27;20434;-70
2023/06/13 01:59:19;;;;;;;4.43;3.30;;;8.20;99.90;;;;;;5138362;27;20027;-70
2023/06/13 02:01:47;;;;;;;6.25;2.85;;;8.20;99.90;;;;;;5139726;27;20031;-70
2023/06/13 02:04:14;;;;;;;6.00;2.83;;;8.20;99.90;;;;;;5139613;27;20027;-70
2023/06/13 02:06:40;;;;;;;5.47;3.20;;;8.10;99.90;;;;;;5139341;27;20038;-71
2023/06/13 02:09:05;;;;;;;6.55;4.00;;;8.10;99.90;;;;;;5139460;27;20043;-70
2023/06/13 02:11:31;;;;;;;6.53;3.67;;;8.10;99.90;;;;;;5139836;27;20031;-70
2023/06/13 02:13:57;;;;;;;6.65;3.53;;;8.10;99.90;;;;;;5139568;27;20042;-70
2023/06/13 02:16:29;;;;;;;7.65;3.42;;;8.00;99.90;;;;;;5139467;27;20412;-70
2023/06/13 02:18:55;;;;;;;6.70;3.40;;;8.00;99.90;;;;;;5120302;27;20055;-70
2023/06/13 02:21:22;;;;;;;6.00;3.10;;;8.00;99.90;;;;;;5139377;27;20034;-70
2023/06/13 02:23:47;;;;;;;3.45;3.00;;;8.00;99.90;;;;;;5139280;27;20373;-70
2023/06/13 02:26:14;;;;;;;6.93;2.80;;;8.00;99.90;;;;;;5120280;27;20035;-70
2023/06/13 02:28:40;;;;;;;7.07;2.97;;;7.90;99.90;;;;;;5119360;27;20039;-70
2023/06/13 02:31:06;;;;;;;5.35;3.08;;;7.90;99.90;;;;;;5118838;27;20413;-70
2023/06/13 02:33:31;;;;;;;6.03;2.80;;;7.90;99.90;;;;;;5120786;27;20063;-70
2023/06/13 02:35:57;;;;;;;5.40;3.30;;;7.90;99.90;;;;;;5138846;27;20039;-70
2023/06/13 02:38:23;;;;;;;4.50;3.10;;;7.90;99.90;;;;;;5138164;27;20072;-70
2023/06/13 02:40:48;;;;;;;3.60;3.08;;;7.80;99.90;;;;;;5138877;27;20031;-70
2023/06/13 02:43:14;;;;;;;4.72;3.60;;;7.80;99.90;;;;;;5138748;27;20461;-70
2023/06/13 02:45:40;;;;;;;3.85;2.92;;;7.90;99.90;;;;;;5120039;27;20035;-70
2023/06/13 02:48:05;;;;;;;5.65;3.13;;;7.80;99.90;;;;;;5138105;27;20038;-70
2023/06/13 02:50:31;;;;;;;5.40;3.17;;;7.80;99.90;;;;;;5120361;27;20119;-70
2023/06/13 02:52:57;;;;;;;8.25;3.28;;;7.80;99.90;;;;;;5137895;27;20035;-70
2023/06/13 02:55:23;;;;;;;6.03;2.92;;;7.80;99.90;;;;;;5137682;27;20027;-70
2023/06/13 02:57:48;;;;;;;3.95;3.28;;;7.80;99.90;;;;;;5137388;27;20465;-70
2023/06/13 03:00:17;;;;;;;4.28;3.58;;;7.80;99.90;;;;;;5137524;27;20515;-70
2023/06/13 03:02:46;;;;;;;6.10;3.90;;;7.80;99.90;;;;;;5137286;27;20064;-70
2023/06/13 03:05:15;;;;;;;;;;;7.70;99.90;;;;;;5139143;27;20050;-71
2023/06/13 03:07:46;;;;;;;4.35;3.30;;;7.80;99.90;;;;;;5119625;27;19948;-70
2023/06/13 03:10:12;;;;;;;5.93;3.10;;;7.80;99.90;;;;;;5121067;27;20038;-70
2023/06/13 03:12:38;;;;;;;6.85;3.28;;;7.80;99.90;;;;;;5120929;27;20039;-70
2023/06/13 03:15:04;;;;;;;4.88;3.17;;;7.70;99.90;;;;;;5139566;27;20077;-70
2023/06/13 03:17:30;;;;;;;4.38;3.10;;;7.70;99.90;;;;;;5139866;27;20046;-70
2023/06/13 03:19:55;;;;;;;4.50;3.28;;;7.70;99.90;;;;;;5120664;27;20046;-71
2023/06/13 03:22:21;;;;;;;8.40;3.08;;;7.80;99.90;;;;;;5139653;27;20039;-72
2023/06/13 03:24:48;;;;;;;6.63;4.18;;;7.80;99.90;;;;;;5137128;27;20038;-70
2023/06/13 03:27:13;;;;;;;3.47;3.13;;;7.70;99.90;;;;;;5136882;27;20474;-70
2023/06/13 03:29:40;;;;;;;10.32;3.78;;;7.80;99.90;;;;;;5136432;27;20035;-70
2023/06/13 03:32:10;;;;;;;6.93;4.03;;;7.80;99.90;;;;;;5118343;27;20066;-70
2023/06/13 03:34:38;;;;;;;6.07;3.58;;;7.80;99.90;;;;;;5136775;27;20031;-70
2023/06/13 03:37:08;;;;;;;3.47;3.15;;;7.80;99.90;;;;;;5136962;27;20354;-70
2023/06/13 03:39:34;;;;;;;4.13;3.20;;;7.80;99.90;;;;;;5136942;27;20063;-70
2023/06/13 03:42:01;;;;;;;4.70;3.42;;;7.90;99.90;;;;;;5118348;28;20423;-70
2023/06/13 03:44:28;;;;;;;4.18;2.38;;;7.90;99.90;;;;;;5118732;28;20087;-70
2023/06/13 03:46:55;;;;;;;5.30;3.60;;;7.90;99.90;;;;;;5137132;27;20027;-70
2023/06/13 03:49:21;;;;;;;4.05;3.22;;;8.00;99.90;;;;;;5137678;27;20472;-70
2023/06/13 03:51:47;;;;;;;3.60;3.30;;;8.00;99.90;;;;;;5136846;27;20087;-70
2023/06/13 03:54:13;;;;;;;4.10;3.20;;;8.00;99.90;;;;;;5136957;28;20484;-70
2023/06/13 03:56:38;;;;;;;5.90;3.40;;;8.10;99.90;;;;;;5136987;28;20031;-70
2023/06/13 03:59:04;;;;;;;8.10;3.33;;;8.10;99.90;;;;;;5117828;28;20465;-70
2023/06/13 04:01:29;;;;;;;3.38;3.08;;;8.10;99.90;;;;;;5136160;28;20095;-70
2023/06/13 04:03:55;;;;;;;6.72;3.30;;;8.10;99.90;;;;;;5137241;28;20080;-71
2023/06/13 04:06:21;;;;;;;5.22;3.28;;;8.20;99.90;;;;;;5137430;28;20027;-76
2023/06/13 04:08:47;;;;;;;7.35;3.20;;;8.30;99.90;;;;;;5118762;28;20031;-70
2023/06/13 04:11:13;;;;;;;6.32;3.25;;;8.40;99.90;;;;;;5119293;28;20537;-70
2023/06/13 04:13:38;;;;;;;7.97;3.15;;;8.40;99.90;;;;;;5140180;28;20028;-71
2023/06/13 04:16:04;;;;;;;5.05;3.00;;;8.50;99.90;;;;;;5122336;28;20042;-72
2023/06/13 04:18:30;;;;;;;4.43;2.78;;;8.50;99.90;;;;;;5123379;28;20039;-72
2023/06/13 04:20:57;;;;;;;7.75;3.10;;;8.60;99.90;;;;;;5140955;28;20482;-72
2023/06/13 04:23:25;;;;;;;12.68;3.13;;;8.60;99.90;;;;;;5140430;28;20106;-71
2023/06/13 04:25:51;;;;;;;5.60;3.23;;;8.70;99.90;;;;;;5120704;28;20035;-72
2023/06/13 04:28:17;;;;;;;6.97;2.78;;;8.70;99.90;;;;;;5139167;28;20031;-71
2023/06/13 04:30:46;;;;;;;3.80;3.28;;;8.80;99.90;;;;;;5137847;28;20046;-72
2023/06/13 04:33:17;;;;;;;3.92;2.90;;;8.80;99.90;;;;;;5118267;28;20032;-72
2023/06/13 04:35:48;;;;;;;5.18;3.08;;;8.90;99.90;;;;;;5137422;28;20027;-71
2023/06/13 04:38:21;;;;;;;9.55;2.97;;;9.00;99.90;;;;;;5137627;28;20035;-72
2023/06/13 04:40:48;;;;;;;4.60;3.03;;;9.10;99.90;;;;;;5117884;27;20072;-70
2023/06/13 04:43:17;;;;;;;6.45;2.97;;;9.20;99.90;;;;;;5141178;27;20035;-71
2023/06/13 04:45:46;;;;;;;5.45;3.05;;;9.20;99.90;;;;;;5121709;27;20034;-71
2023/06/13 04:48:12;;;;;;;4.95;3.35;;;9.30;99.90;;;;;;5140605;27;20034;-71
2023/06/13 04:50:41;;;;;;;5.38;2.78;;;9.40;99.90;;;;;;5141316;27;20390;-74
2023/06/13 04:53:11;;;;;;;4.72;2.97;;;9.50;99.90;;;;;;5141103;27;20106;-73
2023/06/13 04:55:40;;;;;;;7.55;3.15;;;9.60;99.90;;;;;;5140908;27;20023;-73
2023/06/13 04:58:06;;;;;;;3.58;2.58;;;9.70;99.90;;;;;;5123134;27;20062;-73
2023/06/13 05:00:32;;;;;;;11.18;2.97;;;9.80;99.90;;;;;;5140045;27;20096;-73
2023/06/13 05:03:00;;;;;;;5.90;2.90;;;9.80;99.90;;;;;;5121740;27;20035;-74
2023/06/13 05:05:26;;;;;;;6.68;3.00;;;9.90;99.90;;;;;;5139896;27;20084;-72
2023/06/13 05:07:55;;;;;;;7.60;3.28;;;10.00;99.90;;;;;;5138766;27;20504;-75
2023/06/13 05:10:39;;;;;;;5.45;2.75;;;10.10;99.90;;;;;;5119778;27;20074;-73
2023/06/13 05:13:04;;;;;;;4.20;2.72;;;10.30;99.90;;;;;;5120167;27;20060;-72
2023/06/13 05:15:30;;;;;;;4.47;2.85;;;10.40;99.90;;;;;;5138000;27;20417;-72
2023/06/13 05:17:56;;;;;;;6.03;2.53;;;10.50;99.90;;;;;;5119410;27;20032;-73
2023/06/13 05:20:25;;;;;;;3.97;3.00;;;10.70;99.90;;;;;;5119141;27;20389;-72
2023/06/13 05:22:53;;;;;;;7.95;2.80;;;10.80;99.90;;;;;;5137484;27;20027;-71
2023/06/13 05:25:20;;;;;;;3.30;2.60;;;10.90;99.90;;;;;;5137471;27;20031;-70
2023/06/13 05:27:49;;;;;;;3.83;2.88;;;11.00;99.90;;;;;;5137716;27;20024;-69
2023/06/13 05:30:14;;;;;;;3.50;2.50;;;11.10;99.90;;;;;;5137529;27;20050;-70
2023/06/13 05:32:41;;;;;;;4.03;2.60;;;11.30;99.90;;;;;;5137287;27;20039;-70
2023/06/13 05:35:09;;;;;;;6.32;2.78;;;11.40;99.90;;;;;;5118734;27;20031;-70
2023/06/13 05:37:39;;;;;;;4.35;2.60;;;11.50;99.90;;;;;;5118576;27;20039;-70
2023/06/13 05:40:11;;;;;;;4.90;3.03;;;11.60;99.90;;;;;;5118307;27;20038;-70
2023/06/13 05:42:37;;;;;;;3.47;2.70;;;11.60;99.90;;;;;;5137006;27;20076;-70
2023/06/13 05:45:04;;;;;;;8.75;2.97;;;11.70;99.90;;;;;;5118254;27;20042;-70
2023/06/13 05:47:30;;;;;;;5.78;3.10;;;11.80;99.90;;;;;;5118418;27;20034;-70
2023/06/13 05:49:56;;;;;;;4.00;2.67;;;12.00;99.90;;;;;;5136764;27;20031;-70
2023/06/13 05:52:21;;;;;;;6.70;3.22;;;12.20;99.90;;;;;;5136262;27;20340;-70
2023/06/13 05:54:47;;;;;;;5.32;2.70;;;12.40;99.90;;;;;;5136599;27;20528;-70
2023/06/13 05:57:13;;;;;;;5.53;3.33;;;12.70;99.90;;;;;;5136607;27;20084;-70
2023/06/13 05:59:39;;;;;;;5.07;2.80;;;12.90;99.90;;;;;;5136219;27;20384;-70
2023/06/13 06:02:05;;;;;;;5.07;2.47;;;13.20;99.90;;;;;;5137098;27;20027;-71
2023/06/13 06:04:31;;;;;;;8.48;3.33;;;13.40;99.90;;;;;;5136490;27;20035;-70
2023/06/13 06:06:56;;;;;;;7.95;3.13;;;13.50;99.90;;;;;;5136139;27;20035;-71
2023/06/13 06:09:22;;;;;;;6.28;2.60;;;13.60;99.90;;;;;;5136408;27;20042;-70
2023/06/13 06:11:47;;;;;;;7.22;2.95;;;13.80;99.90;;;;;;5136051;27;20062;-71
2023/06/13 06:14:13;;;;;;;4.75;3.00;;;13.90;99.90;;;;;;5136131;27;20107;-70
2023/06/13 06:16:39;;;;;;;3.40;2.38;;;14.00;99.90;;;;;;5135938;27;20036;-70
2023/06/13 06:19:04;;;;;;;5.40;2.60;;;14.40;99.90;;;;;;5117508;27;20074;-70
2023/06/13 06:21:30;;;;;;;6.85;2.60;;;14.90;99.90;;;;;;5117924;27;20478;-71
2023/06/13 06:23:57;;;;;;;4.43;2.50;;;15.60;99.90;;;;;;5117934;27;20476;-71
2023/06/13 06:26:22;;;;;;;4.50;2.00;;;16.30;99.90;;;;;;5135944;27;20042;-71
2023/06/13 06:28:48;;;;;;;4.68;1.95;;;16.80;99.90;;;;;;5136070;27;20027;-69
2023/06/13 06:31:14;;;;;;;5.05;2.05;;;17.30;98.90;;;;;;5117753;27;20035;-69
2023/06/13 06:33:39;;;;;;;2.53;1.75;;;17.70;98.00;;;;;;5135887;27;20091;-70
2023/06/13 06:36:05;;;;;;;1.88;1.60;;;18.10;95.10;;;;;;5135968;27;20031;-70
2023/06/13 06:38:30;;;;;;;4.80;1.70;;;18.30;92.60;;;;;;5135334;27;20027;-69
2023/06/13 06:40:56;;;;;;;1.70;1.60;;;18.50;91.70;;;;;;5135435;27;20035;-70
2023/06/13 06:43:22;;;;;;;2.72;1.77;;;18.80;90.50;;;;;;5135406;27;20384;-70
2023/06/13 06:45:47;;;;;;;3.50;2.17;;;19.20;89.40;;;;;;5135227;27;20028;-70
2023/06/13 06:48:13;;;;;;;4.07;1.70;;;19.50;85.70;;;;;;5117184;27;20042;-70
2023/06/13 06:50:38;;;;;;;5.20;1.70;;;19.50;81.80;;;;;;5135300;27;20453;-70
2023/06/13 06:53:04;;;;;;;4.82;1.50;;;19.80;80.50;;;;;;5116662;27;20083;-70
2023/06/13 06:55:30;;;;;;;2.88;1.52;;;19.90;81.70;;;;;;5135272;27;20031;-70
2023/06/13 06:57:56;;;;;;;3.35;1.60;;;20.30;81.80;;;;;;5116921;27;20121;-70
2023/06/13 07:00:23;;;;;;;4.47;1.70;;;20.50;80.20;;;;;;5135197;27;20027;-70
2023/06/13 07:02:49;;;;;;;8.40;1.92;;;20.50;78.10;;;;;;5135272;27;20043;-70
2023/06/13 07:05:17;;;;;;;7.07;1.90;;;20.60;78.20;;;;;;5134420;27;20106;-70
2023/06/13 07:07:44;;;;;;;3.28;1.85;;;20.70;76.70;;;;;;5135192;27;20038;-70
2023/06/13 07:10:10;;;;;;;2.15;1.38;;;20.80;77.70;;;;;;5135178;27;20155;-70
2023/06/13 07:12:38;;;;;;;1.92;1.55;;;20.70;77.80;;;;;;5134840;27;20030;-70
2023/06/13 07:15:04;;;;;;;5.88;1.95;;;20.80;74.90;;;;;;5116703;27;20468;-70
2023/06/13 07:17:30;;;;;;;4.47;1.55;;;20.90;76.10;;;;;;5116655;27;20031;-70
2023/06/13 07:19:56;;;;;;;3.22;1.80;;;21.10;74.90;;;;;;5134432;27;20126;-70
2023/06/13 07:22:22;;;;;;;6.07;1.65;;;21.40;74.70;;;;;;5134924;27;20051;-70
2023/06/13 07:24:48;;;;;;;3.05;1.70;;;21.50;75.40;;;;;;5134571;27;20042;-70
2023/06/13 07:27:15;;;;;;;5.45;1.80;;;21.70;74.80;;;;;;5134784;27;20073;-71
2023/06/13 07:29:41;;;;;;;3.65;1.73;;;21.80;70.50;;;;;;5116281;27;20046;-71
2023/06/13 07:32:07;;;;;;;3.85;1.55;;;22.00;69.40;;;;;;5134831;27;20027;-72
2023/06/13 07:34:33;;;;;;;6.50;1.80;;;22.10;69.90;;;;;;5134953;27;20107;-71
2023/06/13 07:36:59;;;;;;;3.70;1.80;;;22.30;67.10;;;;;;5134759;27;20110;-72
2023/06/13 07:39:25;;;;;;;5.38;2.63;;;22.10;65.20;;;;;;5134671;27;20027;-70
2023/06/13 07:41:50;;;;;;;4.93;1.50;;;22.00;65.20;;;;;;5116249;28;20061;-71
2023/06/13 07:44:16;;;;;;;3.10;1.27;;;21.10;66.30;;;;;;5134429;27;20031;-69
2023/06/13 07:46:42;;;;;;;1.80;1.35;;;21.30;67.10;;;;;;5116373;27;20027;-72
2023/06/13 07:49:08;;;;;;;3.13;1.38;;;21.70;64.80;;;;;;5134377;27;20041;-72
2023/06/13 07:51:33;;;;;;;6.40;1.70;;;21.90;63.50;;;;;;5134731;27;20031;-73
2023/06/13 07:54:00;;;;;;;2.47;1.65;;;22.20;63.90;;;;;;5134670;27;20035;-70
2023/06/13 07:56:26;;;;;;;2.40;1.60;;;22.50;63.40;;;;;;5134308;28;20472;-70
2023/06/13 07:58:51;;;;;;;2.75;1.48;;;22.50;63.00;;;;;;5134430;28;20468;-71
2023/06/13 08:01:20;;;;;;;3.42;1.30;;;22.90;64.60;;;;;;5134795;28;20065;-70
2023/06/13 08:03:45;;;;;;;5.72;1.55;;;22.60;62.20;;;;;;5134616;28;20097;-70
2023/06/13 08:06:11;;;;;;;3.50;1.35;;;21.90;62.60;;;;;;5134762;28;20042;-70
2023/06/13 08:08:36;;;;;;;1.85;1.15;;;22.40;62.70;;;;;;5115666;28;20035;-70
2023/06/13 08:11:02;;;;;;;9.48;1.30;;;23.10;61.70;;;;;;5133946;28;20080;-70
2023/06/13 08:13:28;;;;;;;3.17;1.20;;;23.60;61.10;;;;;;5134132;28;20023;-71
2023/06/13 08:15:53;;;;;;;1.88;1.30;;;24.20;58.60;;;;;;5116729;27;20039;-70
2023/06/13 08:18:19;;;;;;;2.22;1.13;;;24.30;57.70;;;;;;5138242;27;20032;-71
2023/06/13 08:20:45;;;;;;;2.78;1.40;;;24.30;58.00;;;;;;5119941;27;20097;-71
2023/06/13 08:23:12;;;;;;;1.48;1.13;;;24.20;55.50;;;;;;5120233;27;20051;-71
2023/06/13 08:25:37;;;;;;;2.53;1.23;;;23.50;55.10;;;;;;5138443;27;20027;-71
2023/06/13 08:28:06;;;;;;;2.38;1.23;;;23.70;56.20;;;;;;5138330;27;20034;-71
2023/06/13 08:30:32;;;;;;;7.03;1.63;;;24.20;56.50;;;;;;5138373;27;20106;-72
2023/06/13 08:33:01;;;;;;;1.73;1.30;;;24.60;55.70;;;;;;5138153;27;20172;-72
2023/06/13 08:35:27;;;;;;;2.03;1.15;;;25.20;53.20;;;;;;5138216;27;20428;-72
2023/06/13 08:37:53;;;;;;;1.42;1.27;;;25.30;52.40;;;;;;5137831;27;20023;-72
2023/06/13 08:40:19;;;;;;;5.30;1.35;;;25.80;52.10;;;;;;5119783;27;20049;-74
2023/06/13 08:42:46;;;;;;;3.05;1.23;;;26.20;48.60;;;;;;5138593;27;20114;-71
2023/06/13 08:45:13;;;;;;;10.75;1.40;;;26.00;46.60;;;;;;5119622;27;20092;-72
2023/06/13 08:47:40;;;;;;;2.67;1.23;;;26.20;48.70;;;;;;5138167;27;20037;-71
2023/06/13 08:50:07;;;;;;;2.70;1.23;;;26.40;46.00;;;;;;5138151;27;20039;-71
2023/06/13 08:52:41;;;;;;;4.60;1.30;;;26.50;46.80;;;;;;5138291;27;20042;-71
2023/06/13 08:55:11;;;;;;;2.55;1.58;;;25.80;42.20;;;;;;5119297;27;20118;-72
2023/06/13 08:57:39;;;;;;;4.10;1.42;;;26.20;43.20;;;;;;5137482;27;20446;-71
2023/06/13 09:00:09;;;;;;;2.00;1.75;;;26.00;41.00;;;;;;5119167;27;20039;-70
2023/06/13 09:02:36;;;;;;;2.30;1.20;;;26.30;41.50;;;;;;5137963;27;20031;-72
2023/06/13 09:05:03;;;;;;;3.63;1.63;;;26.30;42.00;;;;;;5137750;27;20023;-71
2023/06/13 09:07:31;;;;;;;3.90;1.52;;;26.00;41.90;;;;;;5137586;27;20027;-71
2023/06/13 09:09:58;;;;;;;4.78;1.65;;;26.10;41.00;;;;;;5137543;27;20456;-71
2023/06/13 09:12:25;;;;;;;4.18;1.30;;;26.50;41.40;;;;;;5137529;27;20101;-71
2023/06/13 09:14:52;;;;;;;4.25;1.50;;;26.80;41.70;;;;;;5118960;27;20049;-70
2023/06/13 09:17:18;;;;;;;3.25;1.48;;;26.20;40.80;;;;;;5118711;27;20122;-70
2023/06/13 09:19:44;;;;;;;3.22;1.90;;;26.40;42.50;;;;;;5118479;27;20135;-71
2023/06/13 09:22:10;;;;;;;1.45;1.35;;;26.40;42.00;;;;;;5137544;27;20465;-71
2023/06/13 09:24:36;;;;;;;2.30;1.38;;;26.50;40.90;;;;;;5137397;27;20098;-73
2023/06/13 09:27:03;;;;;;;4.28;1.75;;;26.50;41.00;;;;;;5136870;27;20031;-70
2023/06/13 09:29:33;;;;;;;2.30;1.50;;;26.70;38.30;;;;;;5136446;27;20527;-69
2023/06/13 09:31:59;;;;;;;5.45;1.92;;;26.50;37.40;;;;;;5137114;27;20037;-70
2023/06/13 09:34:28;;;;;;;3.83;1.30;;;26.50;38.10;;;;;;5137136;27;20426;-71
2023/06/13 09:36:56;;;;;;;2.53;1.92;;;26.70;37.80;;;;;;5136985;27;20035;-70
2023/06/13 09:39:23;;;;;;;2.47;1.75;;;26.40;37.30;;;;;;5136917;27;20126;-70
2023/06/13 09:41:54;;;;;;;4.40;1.88;;;26.70;37.80;;;;;;5136815;27;20043;-71
2023/06/13 09:44:21;;;;;;;3.33;1.20;;;26.80;38.00;;;;;;5136863;27;20043;-72
2023/06/13 09:46:50;;;;;;;3.70;1.70;;;27.00;37.50;;;;;;5137110;27;20035;-72
2023/06/13 09:49:17;;;;;;;2.78;1.30;;;27.40;37.20;;;;;;5118627;27;20038;-70
2023/06/13 09:51:43;;;;;;;6.35;2.08;;;27.30;36.10;;;;;;5136821;27;20035;-72
2023/06/13 09:54:09;;;;;;;2.90;1.52;;;27.20;37.50;;;;;;5131115;27;20468;-72
2023/06/13 09:56:35;;;;;;;3.25;1.88;;;27.20;37.00;;;;;;5133438;27;20038;-72
2023/06/13 09:59:01;;;;;;;5.80;1.58;;;27.40;37.10;;;;;;5136521;27;20035;-72
2023/06/13 10:01:29;;;;;;;3.63;1.88;;;27.60;36.50;;;;;;5136253;27;20041;-72
2023/06/13 10:03:56;;;;;;;2.47;1.60;;;27.50;35.40;;;;;;5136635;27;20028;-72
2023/06/13 10:06:22;;;;;;;1.90;1.30;;;27.30;35.00;;;;;;5136171;27;20031;-72
2023/06/13 10:08:48;;;;;;;2.67;1.70;;;26.70;35.40;;;;;;5123891;27;20118;-70
2023/06/13 10:11:16;;;;;;;5.70;1.77;;;26.10;36.90;;;;;;5101437;27;20450;-69
2023/06/13 10:13:57;;;;;;;3.55;1.70;;;26.00;36.30;;;;;;5136254;27;20367;-69
2023/06/13 10:16:24;;;;;;;3.90;1.67;;;26.10;36.10;;;;;;5136349;27;20050;-69
2023/06/13 10:18:53;;;;;;;3.42;1.88;;;26.10;34.30;;;;;;5135959;27;20050;-69
2023/06/13 10:21:21;;;;;;;2.83;1.50;;;26.10;35.70;;;;;;5136229;27;20066;-70
2023/06/13 10:23:50;;;;;;;3.05;1.70;;;26.40;35.00;;;;;;5136021;27;20108;-71
2023/06/13 10:26:52;;;;;;;2.55;1.63;;;27.00;36.00;;;;;;5119663;27;20099;-72
2023/06/13 10:29:38;;;;;;;3.28;1.70;;;27.00;32.70;;;;;;5072287;28;20118;-72
2023/06/13 10:32:23;;;;;;;4.35;2.50;;;27.30;32.60;;;;;;5115149;28;20032;-72
2023/06/13 10:35:10;;;;;;;2.95;1.48;;;27.00;35.00;;;;;;5115423;28;20028;-72
2023/06/13 10:38:19;;;;;;;3.50;1.50;;;26.60;34.40;;;;;;5096943;28;20032;-71
2023/06/13 10:41:13;;;;;;;3.13;1.73;;;26.80;34.90;;;;;;5115122;28;20045;-70
2023/06/13 10:44:11;;;;;;;2.78;1.65;;;26.50;34.10;;;;;;5097484;28;20096;-71
2023/06/13 10:46:37;;;;;;;4.22;1.80;;;27.00;34.80;;;;;;5097083;28;20531;-71
2023/06/13 10:49:03;;;;;;;2.83;1.80;;;27.10;34.20;;;;;;5130038;27;20118;-69
2023/06/13 10:51:32;;;;;;;3.05;1.58;;;26.60;35.80;;;;;;5135860;27;20118;-70
2023/06/13 10:54:12;;;;;;;5.00;1.75;;;26.70;35.40;;;;;;5135734;27;20033;-71
2023/06/13 10:56:42;;;;;;;2.17;1.70;;;27.40;35.30;;;;;;5135388;27;20041;-70
2023/06/13 10:59:09;;;;;;;3.95;1.40;;;27.70;35.00;;;;;;5110767;28;20066;-70
2023/06/13 11:01:36;;;;;;;7.35;2.10;;;27.80;35.00;;;;;;5114882;28;20039;-69
2023/06/13 11:04:16;;;;;;;11.43;2.15;;;27.40;35.20;;;;;;5114665;28;20036;-70
2023/06/13 11:06:44;;;;;;;3.85;1.88;;;26.70;36.20;;;;;;5115046;28;20035;-70
2023/06/13 11:09:19;;;;;;;3.75;1.55;;;26.60;37.40;;;;;;5115061;28;20092;-72
2023/06/13 11:11:50;;;;;;;3.60;1.55;;;26.80;36.20;;;;;;5114451;28;20489;-70
2023/06/13 11:14:20;;;;;;;1.95;1.63;;;27.00;37.50;;;;;;5097283;28;20067;-70
2023/06/13 11:16:46;;;;;;;8.00;1.80;;;27.10;36.00;;;;;;5108496;27;20039;-71
2023/06/13 11:19:16;;;;;;;3.75;1.60;;;27.00;36.20;;;;;;5133962;27;20046;-69
2023/06/13 11:22:03;;;;;;;4.05;1.73;;;26.40;36.90;;;;;;5114972;28;20032;-71
2023/06/13 11:24:30;;;;;;;3.58;1.60;;;26.40;36.70;;;;;;5114648;28;20039;-70
2023/06/13 11:26:57;;;;;;;3.67;1.57;;;27.20;35.60;;;;;;5114444;28;20111;-70
2023/06/13 11:29:23;;;;;;;5.07;2.13;;;27.60;34.00;;;;;;5102775;28;20032;-71
2023/06/13 11:31:53;;;;;;;4.47;1.70;;;27.50;35.10;;;;;;5114656;28;20067;-71
2023/06/13 11:34:30;;;;;;;2.00;1.50;;;27.20;34.90;;;;;;5114450;28;20075;-72
2023/06/13 11:37:03;;;;;;;4.93;1.60;;;27.30;36.10;;;;;;5114923;28;20089;-72
2023/06/13 11:39:44;;;;;;;3.80;1.50;;;27.20;35.80;;;;;;5122735;27;20043;-73
2023/06/13 11:42:10;;;;;;;5.13;1.70;;;27.90;35.80;;;;;;5134948;27;20032;-72
2023/06/13 11:44:36;;;;;;;1.92;1.50;;;28.10;36.40;;;;;;5116436;28;20031;-72
2023/06/13 11:47:02;;;;;;;3.70;2.20;;;28.40;34.50;;;;;;5134917;27;20038;-72
2023/06/13 11:49:28;;;;;;;4.60;1.45;;;27.80;34.50;;;;;;5134788;27;20027;-72
2023/06/13 11:51:53;;;;;;;3.50;1.80;;;28.60;33.30;;;;;;5115847;28;20046;-72
2023/06/13 11:54:28;;;;;;;2.17;1.33;;;29.00;32.10;;;;;;5134904;27;20406;-72
2023/06/13 11:56:54;;;;;;;4.65;1.90;;;29.30;31.40;;;;;;5134685;28;20032;-76
2023/06/13 11:59:24;;;;;;;3.30;1.50;;;29.40;32.70;;;;;;5134749;28;20038;-73
2023/06/13 12:01:54;;;;;;;1.98;1.77;;;28.70;30.90;;;;;;5134174;28;20484;-72
2023/06/13 12:04:25;;;;;;;2.17;1.98;;;29.10;32.50;;;;;;5115905;28;20027;-72
2023/06/13 12:06:52;;;;;;;4.55;1.85;;;29.40;32.50;;;;;;5134499;28;20035;-73
2023/06/13 12:09:18;;;;;;;2.72;1.60;;;30.00;32.80;;;;;;5116125;28;20046;-72
2023/06/13 12:11:45;;;;;;;3.00;1.45;;;29.80;33.00;;;;;;5116212;28;20480;-73
2023/06/13 12:14:11;;;;;;;4.63;1.90;;;29.60;33.00;;;;;;5134425;28;20059;-72
2023/06/13 12:16:38;;;;;;;3.65;1.45;;;29.90;31.70;;;;;;5116661;28;20031;-72
2023/06/13 12:19:06;;;;;;;3.55;1.67;;;30.20;31.50;;;;;;5134143;28;20131;-72
2023/06/13 12:21:36;;;;;;;4.57;1.48;;;30.10;30.70;;;;;;5134384;28;20039;-72
2023/06/13 12:24:08;;;;;;;1.90;1.60;;;29.80;31.40;;;;;;5134414;28;20069;-72
2023/06/13 12:26:35;;;;;;;7.47;2.05;;;30.10;31.10;;;;;;5134256;28;20051;-73
2023/06/13 12:29:06;;;;;;;3.03;1.70;;;30.50;31.60;;;;;;5134171;28;20054;-72
2023/06/13 12:31:36;;;;;;;3.08;1.55;;;30.70;31.60;;;;;;5134559;28;20027;-73
2023/06/13 12:34:08;;;;;;;4.88;1.70;;;31.30;30.80;;;;;;5134267;28;20031;-73
2023/06/13 12:36:44;;;;;;;6.63;1.70;;;31.20;29.00;;;;;;5134228;28;20042;-73
2023/06/13 12:39:11;;;;;;;2.47;1.70;;;31.30;30.00;;;;;;5134351;28;20080;-74
2023/06/13 12:41:38;;;;;;;2.65;1.48;;;32.00;31.10;;;;;;5134140;28;20092;-73
2023/06/13 12:44:06;;;;;;;3.88;1.58;;;32.20;31.60;;;;;;5134179;28;20035;-72
2023/06/13 12:46:38;;;;;;;1.45;1.35;;;32.10;30.80;;;;;;5134027;28;20110;-73
2023/06/13 12:49:10;;;;;;;13.63;2.95;;;31.90;30.00;;;;;;5115153;28;20042;-72
2023/06/13 12:51:43;;;;;;;3.15;1.63;;;31.30;31.40;;;;;;5134209;28;20042;-71
2023/06/13 12:54:27;;;;;;;4.20;1.73;;;30.00;31.50;;;;;;5133991;28;20372;-73
2023/06/13 12:57:01;;;;;;;4.07;2.17;;;29.60;32.00;;;;;;5134210;28;20038;-71